Time;durP1;ratioP1;P1;durP2;ratioP2;P2;SDS_P1;SDS_P2;PMS_P1;PMS_P2;Temp;Humidity;BMP_temperature;BMP_pressure;BME280_temperature;BME280_humidity;BME280_pressure;Samples;Min_cycle;Max_cycle;Signal;HPM_P1;HPM_P2
2023/07/26 00:02:06;;;;;;;4.23;1.33;;;;;;;13.88;100.00;100630.16;4962270;28;20190;-82
2023/07/26 00:04:32;;;;;;;2.70;1.43;;;;;;;13.39;100.00;100548.44;4965456;28;20198;-83
2023/07/26 00:06:57;;;;;;;3.50;1.17;;;;;;;14.20;100.00;100647.84;4969098;28;20260;-78
2023/07/26 00:09:23;;;;;;;2.33;1.10;;;;;;;13.95;100.00;100626.34;4963211;28;20796;-83
2023/07/26 00:11:48;;;;;;;3.30;1.70;;;;;;;13.89;100.00;100642.63;4959571;28;20215;-85
2023/07/26 00:14:13;;;;;;;9.03;1.80;;;;;;;13.82;100.00;100623.81;4965166;28;20638;-83
2023/07/26 00:16:39;;;;;;;3.60;1.47;;;;;;;14.04;100.00;100647.63;4964627;28;20225;-84
2023/07/26 00:19:05;;;;;;;5.67;1.40;;;;;;;14.23;100.00;100660.88;4961895;28;20237;-87
2023/07/26 00:21:31;;;;;;;3.90;1.23;;;;;;;13.81;100.00;100606.00;4960919;28;20288;-85
2023/07/26 00:23:58;;;;;;;1.73;0.93;;;;;;;14.25;100.00;100666.03;4966290;28;20201;-83
2023/07/26 00:26:24;;;;;;;2.47;1.40;;;;;;;14.20;100.00;100663.16;4966264;28;20452;-84
2023/07/26 00:28:50;;;;;;;3.60;1.30;;;;;;;14.02;100.00;100639.75;4964310;28;20482;-83
2023/07/26 00:31:15;;;;;;;3.40;1.40;;;;;;;13.92;100.00;100621.41;4962061;28;20277;-85
2023/07/26 00:33:40;;;;;;;3.40;1.40;;;;;;;14.17;100.00;100677.94;4967315;28;20277;-85
2023/07/26 00:36:06;;;;;;;1.87;1.03;;;;;;;13.46;100.00;100541.13;4961210;28;20567;-83
2023/07/26 00:38:32;;;;;;;2.77;1.57;;;;;;;13.63;100.00;100592.53;4969689;28;20666;-83
2023/07/26 00:40:57;;;;;;;3.40;1.20;;;;;;;14.31;100.00;100677.78;4957621;28;20708;-80
2023/07/26 00:43:22;;;;;;;5.70;1.53;;;;;;;14.31;100.00;100673.19;4967931;28;20208;-77
2023/07/26 00:45:48;;;;;;;1.90;1.13;;;;;;;14.02;100.00;100645.16;4965839;28;20714;-75
2023/07/26 00:48:15;;;;;;;4.13;1.60;;;;;;;13.60;100.00;100601.03;4967006;28;20556;-78
2023/07/26 00:50:41;;;;;;;7.63;1.40;;;;;;;13.58;100.00;100601.28;4968200;28;20220;-78
2023/07/26 00:53:07;;;;;;;1.80;1.10;;;;;;;13.30;100.00;100588.31;4969254;28;20448;-76
2023/07/26 00:55:34;;;;;;;4.33;1.13;;;;;;;13.02;100.00;100522.28;4964045;28;21015;-81
2023/07/26 00:58:00;;;;;;;4.00;1.20;;;;;;;14.19;100.00;100705.50;4966082;28;20507;-77
2023/07/26 01:00:26;;;;;;;2.03;1.10;;;;;;;14.10;100.00;100688.00;4967147;28;20480;-81
2023/07/26 01:02:51;;;;;;;4.07;1.43;;;;;;;13.55;100.00;100612.50;4963458;28;20189;-78
2023/07/26 01:05:17;;;;;;;3.50;1.40;;;;;;;13.30;100.00;100593.69;4968743;28;20194;-79
2023/07/26 01:08:06;;;;;;;7.30;1.47;;;;;;;14.02;100.00;100701.78;4965522;28;20214;-78
2023/07/26 01:10:51;;;;;;;2.27;1.33;;;;;;;12.63;100.00;100493.88;4967349;28;20461;-80
2023/07/26 01:13:19;;;;;;;4.00;1.43;;;;;;;14.17;100.00;100714.88;4965905;28;20453;-79
2023/07/26 01:15:48;;;;;;;3.20;1.37;;;;;;;14.10;100.00;100720.34;4963107;28;20445;-78
2023/07/26 01:18:15;;;;;;;3.90;1.60;;;;;;;13.99;100.00;100716.53;4961952;28;20510;-79
2023/07/26 01:20:40;;;;;;;2.20;1.33;;;;;;;14.06;100.00;100715.63;4964258;28;20571;-81
2023/07/26 01:23:06;;;;;;;4.47;1.60;;;;;;;14.12;100.00;100730.94;4967674;28;20993;-79
2023/07/26 01:25:32;;;;;;;2.07;1.37;;;;;;;13.47;100.00;100627.09;4964055;28;20477;-82
2023/07/26 01:27:58;;;;;;;4.60;1.57;;;;;;;13.95;100.00;100701.03;4958159;28;20288;-78
2023/07/26 01:30:26;;;;;;;2.63;1.50;;;;;;;13.92;100.00;100731.16;4963121;28;20966;-80
2023/07/26 01:32:57;;;;;;;7.47;1.77;;;;;;;13.23;100.00;100625.25;4961891;28;20186;-79
2023/07/26 01:35:23;;;;;;;7.73;1.70;;;;;;;13.11;100.00;100596.34;4963396;28;20452;-79
2023/07/26 01:37:50;;;;;;;3.60;1.20;;;;;;;13.91;100.00;100706.03;4960620;28;20820;-79
2023/07/26 01:40:17;;;;;;;5.50;2.00;;;;;;;13.34;100.00;100632.63;4963998;28;20476;-84
2023/07/26 01:42:42;;;;;;;3.43;1.80;;;;;;;13.22;100.00;100592.09;4963881;28;20556;-83
2023/07/26 01:45:09;;;;;;;4.43;1.53;;;;;;;13.52;100.00;100645.28;4956626;28;20865;-80
2023/07/26 01:47:35;;;;;;;6.97;1.77;;;;;;;13.42;100.00;100623.41;4960164;28;20251;-80
2023/07/26 01:50:00;;;;;;;2.60;1.33;;;;;;;13.82;100.00;100711.94;4960769;28;20844;-80
2023/07/26 01:52:26;;;;;;;2.53;1.07;;;;;;;13.90;100.00;100715.19;4958910;28;20194;-83
2023/07/26 01:54:51;;;;;;;6.27;1.80;;;;;;;13.84;100.00;100716.06;4968284;28;20185;-81
2023/07/26 01:57:17;;;;;;;2.50;1.17;;;;;;;13.56;100.00;100668.03;4960318;28;20192;-76
2023/07/26 01:59:42;;;;;;;3.50;1.77;;;;;;;13.67;100.00;100680.78;4966218;28;20213;-79
2023/07/26 02:02:08;;;;;;;3.10;1.10;;;;;;;13.89;100.00;100710.03;4966289;28;20590;-80
2023/07/26 02:04:33;;;;;;;2.97;1.57;;;;;;;12.73;100.00;100529.19;4966857;28;20225;-77
2023/07/26 02:06:59;;;;;;;3.13;1.57;;;;;;;13.84;100.00;100682.91;4965989;28;20190;-79
2023/07/26 02:09:24;;;;;;;3.93;1.67;;;;;;;13.55;100.00;100667.22;4961018;28;20301;-79
2023/07/26 02:11:50;;;;;;;4.53;1.17;;;;;;;13.57;100.00;100675.91;4963502;28;20208;-78
2023/07/26 02:14:16;;;;;;;1.70;1.30;;;;;;;13.64;100.00;100670.44;4964576;28;20194;-79
2023/07/26 02:16:42;;;;;;;2.47;1.17;;;;;;;13.71;100.00;100663.13;4969031;28;20201;-84
2023/07/26 02:19:07;;;;;;;4.00;1.50;;;;;;;13.67;100.00;100653.84;4962653;28;20470;-78
2023/07/26 02:21:33;;;;;;;4.40;1.43;;;;;;;13.04;100.00;100551.66;4960754;28;20198;-81
2023/07/26 02:23:58;;;;;;;3.83;1.50;;;;;;;13.45;100.00;100614.88;4962199;28;20205;-83
2023/07/26 02:26:24;;;;;;;2.43;1.20;;;;;;;13.17;100.00;100548.03;4962731;28;20205;-79
2023/07/26 02:28:49;;;;;;;4.53;1.50;;;;;;;13.70;100.00;100633.69;4960986;28;20229;-83
2023/07/26 02:31:14;;;;;;;3.20;1.70;;;;;;;12.98;100.00;100549.84;4964402;28;20688;-81
2023/07/26 02:33:40;;;;;;;4.00;1.27;;;;;;;13.00;100.00;100526.25;4962654;28;20198;-82
2023/07/26 02:36:05;;;;;;;2.77;1.70;;;;;;;13.37;100.00;100589.06;4963241;28;20216;-84
2023/07/26 02:38:31;;;;;;;3.10;1.50;;;;;;;13.16;100.00;100611.00;4964452;28;20620;-83
2023/07/26 02:40:56;;;;;;;4.07;1.60;;;;;;;13.54;100.00;100662.88;4969829;28;20190;-82
2023/07/26 02:43:22;;;;;;;6.33;1.60;;;;;;;13.57;100.00;100670.53;4965810;28;20194;-84
2023/07/26 02:45:47;;;;;;;3.83;1.50;;;;;;;13.31;100.00;100646.53;4967539;28;20650;-83
2023/07/26 02:48:13;;;;;;;3.30;1.60;;;;;;;13.64;100.00;100680.41;4965070;28;20263;-80
2023/07/26 02:50:38;;;;;;;4.97;1.53;;;;;;;13.42;100.00;100628.81;4963589;28;20197;-82
2023/07/26 02:53:03;;;;;;;4.03;1.70;;;;;;;13.67;100.00;100670.00;4963834;28;20202;-84
2023/07/26 02:55:29;;;;;;;6.80;1.83;;;;;;;12.56;100.00;100528.09;4969514;28;20189;-81
2023/07/26 02:57:54;;;;;;;4.17;1.70;;;;;;;13.77;100.00;100693.75;4966326;28;20492;-82
2023/07/26 03:00:20;;;;;;;5.87;1.70;;;;;;;13.55;100.00;100706.81;4969864;28;20310;-81
2023/07/26 03:02:45;;;;;;;4.07;1.93;;;;;;;13.70;100.00;100684.91;4969667;28;20193;-82
2023/07/26 03:05:10;;;;;;;5.77;1.70;;;;;;;13.44;100.00;100653.66;4970757;28;20205;-81
2023/07/26 03:07:36;;;;;;;2.77;1.20;;;;;;;13.80;100.00;100712.19;4972249;28;20210;-83
2023/07/26 03:10:01;;;;;;;4.13;1.67;;;;;;;13.79;100.00;100715.91;4964676;28;20213;-79
2023/07/26 03:12:27;;;;;;;7.20;1.70;;;;;;;13.69;100.00;100700.25;4969412;28;20689;-79
2023/07/26 03:14:53;;;;;;;6.67;1.60;;;;;;;12.65;100.00;100565.25;4970605;28;20681;-85
2023/07/26 03:17:18;;;;;;;6.57;1.80;;;;;;;13.63;100.00;100716.50;4963402;28;20194;-85
2023/07/26 03:19:44;;;;;;;2.60;1.43;;;;;;;13.80;100.00;100731.06;4964516;28;20209;-80
2023/07/26 03:22:09;;;;;;;5.27;2.00;;;;;;;13.66;100.00;100735.75;4966226;28;20194;-85
2023/07/26 03:24:34;;;;;;;3.37;1.77;;;;;;;13.32;100.00;100697.47;4969703;28;20658;-83
2023/07/26 03:27:00;;;;;;;4.10;1.30;;;;;;;13.34;100.00;100702.66;4965341;28;20194;-82
2023/07/26 03:29:25;;;;;;;2.30;1.37;;;;;;;13.68;100.00;100741.75;4960842;28;20221;-84
2023/07/26 03:31:51;;;;;;;3.10;1.80;;;;;;;13.61;100.00;100750.94;4971962;28;20205;-84
2023/07/26 03:34:16;;;;;;;4.53;1.70;;;;;;;13.70;100.00;100755.00;4969065;28;20198;-84
2023/07/26 03:36:42;;;;;;;3.50;1.60;;;;;;;13.84;100.00;100753.00;4964206;28;20190;-84
2023/07/26 03:39:07;;;;;;;2.60;1.70;;;;;;;13.16;100.00;100695.28;4959886;28;20344;-86
2023/07/26 03:41:32;;;;;;;5.50;1.83;;;;;;;13.73;100.00;100763.44;4963370;28;20526;-86
2023/07/26 03:43:58;;;;;;;5.70;2.10;;;;;;;13.78;100.00;100757.41;4970215;28;20866;-85
2023/07/26 03:46:23;;;;;;;3.67;1.40;;;;;;;13.73;100.00;100755.38;4976243;28;20191;-84
2023/07/26 03:48:49;;;;;;;4.47;1.87;;;;;;;13.73;100.00;100751.84;4968708;28;20255;-85
2023/07/26 03:51:14;;;;;;;2.53;1.33;;;;;;;13.65;100.00;100758.34;4964417;28;20283;-84
2023/07/26 03:53:39;;;;;;;3.20;1.60;;;;;;;13.72;100.00;100752.91;4985089;28;20201;-86
2023/07/26 03:56:05;;;;;;;3.63;1.80;;;;;;;13.05;100.00;100656.47;4969724;28;20598;-86
2023/07/26 03:58:30;;;;;;;2.20;1.20;;;;;;;13.43;100.00;100716.69;4964931;28;20225;-85
2023/07/26 04:00:56;;;;;;;2.37;1.50;;;;;;;13.74;100.00;100758.88;4968170;28;20623;-82
2023/07/26 04:03:21;;;;;;;3.57;1.97;;;;;;;13.31;100.00;100689.63;4966766;28;20202;-85
2023/07/26 04:05:47;;;;;;;2.83;1.40;;;;;;;12.86;100.00;100665.50;4967828;28;20197;-85
2023/07/26 04:08:12;;;;;;;3.50;1.77;;;;;;;12.40;100.00;100551.78;4969267;28;20249;-81
2023/07/26 04:10:37;;;;;;;5.73;1.53;;;;;;;13.16;100.00;100738.38;4965896;28;20196;-85
2023/07/26 04:13:03;;;;;;;2.53;1.20;;;;;;;12.87;100.00;100661.75;4966213;28;20258;-84
2023/07/26 04:15:29;;;;;;;1.60;1.30;;;;;;;12.87;100.00;100669.84;4966195;28;20233;-85
2023/07/26 04:17:55;;;;;;;3.23;1.50;;;;;;;13.48;100.00;100757.25;4964626;28;20189;-84
2023/07/26 04:20:20;;;;;;;3.90;1.50;;;;;;;13.41;100.00;100757.31;4967241;28;20532;-83
2023/07/26 04:22:46;;;;;;;4.80;1.30;;;;;;;13.42;100.00;100801.22;4964059;28;20233;-83
2023/07/26 04:25:11;;;;;;;3.53;1.47;;;;;;;13.38;100.00;100791.94;4965481;28;20194;-81
2023/07/26 04:27:37;;;;;;;3.00;1.40;;;;;;;12.49;100.00;100688.69;4957891;28;20217;-84
2023/07/26 04:30:03;;;;;;;1.80;1.13;;;;;;;13.45;100.00;100801.63;4947766;28;20229;-84
2023/07/26 04:32:28;;;;;;;3.13;1.57;;;;;;;12.57;100.00;100681.22;4952973;28;20233;-84
2023/07/26 04:34:54;;;;;;;2.33;1.30;;;;;;;13.69;100.00;100829.63;4960283;28;20548;-85
2023/07/26 04:37:19;;;;;;;3.77;2.20;;;;;;;13.49;100.00;100765.13;4969290;28;20183;-85
2023/07/26 04:39:48;;;;;;;3.80;1.73;;;;;;;13.21;100.00;100737.75;4966388;28;20230;-84
2023/07/26 04:42:13;;;;;;;2.80;1.73;;;;;;;13.88;100.00;100832.38;4964311;28;20194;-84
2023/07/26 04:44:39;;;;;;;5.80;1.73;;;;;;;13.36;100.00;100761.69;4965733;28;20850;-80
2023/07/26 04:47:05;;;;;;;5.83;1.60;;;;;;;13.78;100.00;100833.72;4966587;28;20270;-83
2023/07/26 04:49:30;;;;;;;4.30;1.50;;;;;;;13.67;100.00;100785.09;4969092;28;20578;-82
2023/07/26 04:51:56;;;;;;;3.03;1.53;;;;;;;13.85;100.00;100822.03;4967758;28;20197;-83
2023/07/26 04:54:21;;;;;;;10.53;1.60;;;;;;;13.85;100.00;100817.47;4971653;28;20682;-79
2023/07/26 04:56:46;;;;;;;3.63;1.53;;;;;;;13.61;100.00;100800.25;4968643;28;20205;-82
2023/07/26 04:59:12;;;;;;;3.00;1.40;;;;;;;13.68;100.00;100784.88;4971912;28;20241;-84
2023/07/26 05:01:37;;;;;;;2.73;1.50;;;;;;;13.94;100.00;100809.91;4970346;28;20198;-86
2023/07/26 05:04:03;;;;;;;3.47;1.90;;;;;;;13.81;100.00;100815.44;4971155;28;20186;-84
2023/07/26 05:06:30;;;;;;;3.93;1.50;;;;;;;14.01;100.00;100819.63;4968891;28;20194;-87
2023/07/26 05:08:56;;;;;;;2.23;1.20;;;;;;;13.70;100.00;100769.28;4967336;28;20238;-82
2023/07/26 05:11:22;;;;;;;6.97;2.70;;;;;;;13.87;100.00;100823.47;4972599;28;20493;-82
2023/07/26 05:13:51;;;;;;;3.23;1.50;;;;;;;13.74;100.00;100837.91;4958851;28;20202;-78
2023/07/26 05:16:16;;;;;;;5.30;1.83;;;;;;;13.96;100.00;100830.22;4965318;28;20460;-76
2023/07/26 05:18:42;;;;;;;3.47;1.50;;;;;;;13.73;100.00;100778.81;4967864;28;20462;-79
2023/07/26 05:21:07;;;;;;;4.20;1.43;;;;;;;13.70;100.00;100847.44;4966597;28;21524;-78
2023/07/26 05:23:33;;;;;;;3.07;1.77;;;;;;;13.46;100.00;100792.50;4963071;28;20194;-78
2023/07/26 05:25:58;;;;;;;3.90;1.67;;;;;;;13.76;100.00;100857.34;4965319;28;20539;-78
2023/07/26 05:28:24;;;;;;;2.90;1.57;;;;;;;13.41;100.00;100784.25;4966503;28;20261;-77
2023/07/26 05:30:49;;;;;;;3.30;1.70;;;;;;;13.82;100.00;100861.03;4966448;28;20672;-78
2023/07/26 05:33:15;;;;;;;2.07;1.50;;;;;;;13.52;100.00;100833.91;4967885;28;20189;-78
2023/07/26 05:35:41;;;;;;;3.10;1.60;;;;;;;13.74;100.00;100874.78;4967103;28;20198;-76
2023/07/26 05:38:07;;;;;;;3.13;1.67;;;;;;;13.38;100.00;100883.53;4963365;28;20194;-78
2023/07/26 05:40:33;;;;;;;2.97;1.97;;;;;;;12.23;100.00;100674.34;4964527;28;20224;-80
2023/07/26 05:42:58;;;;;;;2.93;2.03;;;;;;;13.28;100.00;100822.06;4967057;28;20860;-77
2023/07/26 05:45:23;;;;;;;2.67;1.53;;;;;;;13.05;100.00;100750.69;4968083;28;20484;-78
2023/07/26 05:47:49;;;;;;;2.93;1.57;;;;;;;12.42;100.00;100665.34;4964695;28;20217;-78
2023/07/26 05:50:14;;;;;;;3.87;1.60;;;;;;;13.77;100.00;100837.47;4963077;28;20220;-82
2023/07/26 05:52:40;;;;;;;4.57;1.80;;;;;;;13.81;100.00;100854.00;4962781;28;20190;-77
2023/07/26 05:55:06;;;;;;;4.63;1.87;;;;;;;13.55;100.00;100850.47;4964910;28;20206;-76
2023/07/26 05:57:32;;;;;;;3.13;1.37;;;;;;;13.11;100.00;100741.75;4960693;28;20217;-78
2023/07/26 05:59:57;;;;;;;3.57;1.73;;;;;;;13.48;100.00;100848.84;4964400;28;20604;-78
2023/07/26 06:02:23;;;;;;;3.43;1.77;;;;;;;13.25;100.00;100779.34;4962074;28;20454;-79
2023/07/26 06:04:49;;;;;;;3.60;1.90;;;;;;;13.70;100.00;100841.25;4964834;28;20194;-79
2023/07/26 06:07:16;;;;;;;2.17;1.40;;;;;;;13.94;100.00;100839.59;4966147;28;20204;-79
2023/07/26 06:09:44;;;;;;;5.53;1.93;;;;;;;12.83;100.00;100733.22;4968747;28;20698;-80
2023/07/26 06:12:10;;;;;;;7.63;2.47;;;;;;;13.08;100.00;100782.56;4967992;28;20965;-79
2023/07/26 06:14:36;;;;;;;3.40;1.80;;;;;;;13.22;100.00;100799.47;4965506;28;20453;-82
2023/07/26 06:17:01;;;;;;;4.47;1.80;;;;;;;13.32;100.00;100809.81;4966907;28;20468;-83
2023/07/26 06:19:27;;;;;;;5.97;2.50;;;;;;;13.63;100.00;100859.34;4964963;28;20581;-81
2023/07/26 06:21:55;;;;;;;4.70;1.47;;;;;;;13.89;100.00;100859.13;4964201;28;20312;-82
2023/07/26 06:24:22;;;;;;;3.97;1.63;;;;;;;13.17;100.00;100779.63;4967739;28;20201;-81
2023/07/26 06:26:48;;;;;;;2.80;1.70;;;;;;;13.24;100.00;100770.44;4965153;28;20450;-79
2023/07/26 06:29:13;;;;;;;4.47;1.70;;;;;;;13.20;100.00;100781.88;4969412;28;20544;-80
2023/07/26 06:31:39;;;;;;;2.80;1.77;;;;;;;12.96;100.00;100727.78;4965561;28;20718;-79
2023/07/26 06:34:04;;;;;;;5.33;1.67;;;;;;;13.81;100.00;100890.94;4966957;28;20455;-82
2023/07/26 06:36:29;;;;;;;4.30;1.77;;;;;;;14.16;100.00;100891.28;4969766;28;20731;-78
2023/07/26 06:38:55;;;;;;;2.70;1.63;;;;;;;13.92;100.00;100887.53;4973757;28;20221;-83
2023/07/26 06:41:20;;;;;;;3.07;1.90;;;;;;;14.14;100.00;100887.97;4972633;28;22270;-82
2023/07/26 06:43:46;;;;;;;3.90;1.70;;;;;;;13.31;100.00;100800.09;4974529;28;20182;-80
2023/07/26 06:46:11;;;;;;;3.50;1.80;;;;;;;13.94;100.00;100848.53;4969426;28;20204;-81
2023/07/26 06:48:37;;;;;;;5.37;2.10;;;;;;;13.43;100.00;100802.91;4966208;28;20246;-83
2023/07/26 06:51:04;;;;;;;3.07;1.90;;;;;;;14.13;100.00;100851.25;4965973;28;20644;-82
2023/07/26 06:53:30;;;;;;;3.43;2.00;;;;;;;14.49;100.00;100888.22;4975037;28;20613;-81
2023/07/26 06:55:59;;;;;;;3.60;1.87;;;;;;;13.88;100.00;100789.25;4976706;28;20449;-78
2023/07/26 06:58:25;;;;;;;6.40;2.40;;;;;;;13.71;100.00;100772.81;4980118;28;20430;-76
2023/07/26 07:00:51;;;;;;;2.87;1.70;;;;;;;13.77;100.00;100764.69;4966832;28;20550;-86
2023/07/26 07:03:17;;;;;;;5.47;2.17;;;;;;;14.17;100.00;100820.06;4976582;28;20190;-86
2023/07/26 07:05:42;;;;;;;3.20;1.80;;;;;;;14.44;100.00;100856.53;4969294;28;20445;-88
2023/07/26 07:08:07;;;;;;;3.27;2.07;;;;;;;14.27;100.00;100835.78;4969727;28;20671;-88
2023/07/26 07:10:33;;;;;;;4.93;1.83;;;;;;;14.23;100.00;100849.72;4972336;28;20677;-86
2023/07/26 07:12:58;;;;;;;4.13;1.97;;;;;;;14.12;100.00;100855.00;4967816;28;20200;-81
2023/07/26 07:15:24;;;;;;;3.27;1.90;;;;;;;14.34;100.00;100852.69;4968545;28;20190;-78
2023/07/26 07:17:49;;;;;;;3.90;1.90;;;;;;;14.21;100.00;100830.22;4968653;28;20713;-79
2023/07/26 07:20:15;;;;;;;3.30;1.60;;;;;;;14.43;100.00;100841.38;4963786;28;20214;-82
2023/07/26 07:22:41;;;;;;;4.13;1.87;;;;;;;14.61;100.00;100874.84;4967737;28;20986;-78
2023/07/26 07:25:06;;;;;;;4.17;1.83;;;;;;;14.55;100.00;100875.75;4967685;28;20198;-80
2023/07/26 07:27:32;;;;;;;2.70;1.90;;;;;;;13.84;100.00;100774.56;4969535;28;20228;-81
2023/07/26 07:29:57;;;;;;;4.57;1.83;;;;;;;14.13;100.00;100824.28;4970705;28;20226;-82
2023/07/26 07:32:23;;;;;;;2.73;1.60;;;;;;;13.87;100.00;100774.13;4972227;28;20236;-80
2023/07/26 07:34:48;;;;;;;4.13;1.80;;;;;;;14.80;100.00;100881.09;4970263;28;20198;-82
2023/07/26 07:37:14;;;;;;;3.07;2.00;;;;;;;13.60;100.00;100719.63;4973181;28;20194;-81
2023/07/26 07:39:39;;;;;;;4.10;2.13;;;;;;;14.29;100.00;100812.91;4964472;28;20988;-82
2023/07/26 07:42:05;;;;;;;3.80;2.00;;;;;;;14.48;100.00;100889.28;4970621;28;20190;-82
2023/07/26 07:44:31;;;;;;;4.77;2.70;;;;;;;14.56;100.00;100890.91;4969611;28;20681;-79
2023/07/26 07:46:57;;;;;;;3.10;1.77;;;;;;;13.70;100.00;100785.47;4968507;28;20193;-83
2023/07/26 07:49:23;;;;;;;3.13;1.90;;;;;;;14.37;100.00;100850.38;4965586;28;20682;-81
2023/07/26 07:51:48;;;;;;;5.80;1.80;;;;;;;13.99;100.00;100821.69;4966839;28;20444;-85
2023/07/26 07:54:14;;;;;;;4.90;1.60;;;;;;;13.96;100.00;100797.06;4964430;28;20473;-86
2023/07/26 07:56:40;;;;;;;3.53;2.27;;;;;;;14.38;100.00;100905.19;4967042;28;20221;-84
2023/07/26 07:59:05;;;;;;;3.63;1.40;;;;;;;14.23;100.00;100855.09;4970542;28;20213;-84
2023/07/26 08:01:31;;;;;;;3.53;2.10;;;;;;;14.09;100.00;100847.31;4967063;28;20194;-84
2023/07/26 08:03:59;;;;;;;3.50;1.60;;;;;;;13.87;100.00;100755.25;4965636;28;20205;-86
2023/07/26 08:06:25;;;;;;;2.73;1.53;;;;;;;14.18;100.00;100822.56;4972221;28;20190;-83
2023/07/26 08:08:51;;;;;;;5.77;2.00;;;;;;;14.91;100.00;100894.66;4974745;28;21354;-86
2023/07/26 08:11:16;;;;;;;3.57;1.83;;;;;;;14.90;100.00;100873.31;4966242;28;20450;-88
2023/07/26 08:13:43;;;;;;;4.50;2.17;;;;;;;14.80;100.00;100864.91;4962026;28;20245;-86
2023/07/26 08:16:08;;;;;;;3.40;2.17;;;;;;;14.85;100.00;100854.25;4968461;28;20561;-87
2023/07/26 08:18:34;;;;;;;6.40;2.47;;;;;;;14.97;100.00;100848.91;4968735;28;20468;-87
2023/07/26 08:20:59;;;;;;;3.27;1.80;;;;;;;14.63;100.00;100811.50;4970982;28;20201;-88
2023/07/26 08:23:26;;;;;;;3.40;2.00;;;;;;;14.65;100.00;100805.88;4972069;28;20228;-86
2023/07/26 08:25:51;;;;;;;3.00;1.97;;;;;;;15.03;100.00;100845.28;4964698;28;20213;-88
2023/07/26 08:28:17;;;;;;;3.13;2.13;;;;;;;15.06;100.00;100850.22;4967609;28;20477;-85
2023/07/26 08:30:43;;;;;;;4.90;1.97;;;;;;;15.24;100.00;100844.78;4974116;28;20206;-87
2023/07/26 08:33:08;;;;;;;2.27;1.57;;;;;;;15.28;100.00;100837.06;4965941;28;20203;-86
2023/07/26 08:35:34;;;;;;;2.13;1.43;;;;;;;15.29;100.00;100831.41;4965342;28;20252;-87
2023/07/26 08:37:59;;;;;;;2.93;1.60;;;;;;;15.07;100.00;100781.63;4970677;28;20183;-86
2023/07/26 08:40:25;;;;;;;3.30;1.57;;;;;;;15.30;100.00;100787.13;4966190;28;20214;-89
2023/07/26 08:42:51;;;;;;;4.43;1.50;;;;;;;14.81;100.00;100712.63;4970942;28;20984;-87
2023/07/26 08:45:17;;;;;;;3.23;1.60;;;;;;;14.88;100.00;100713.38;4964966;28;20217;-85
2023/07/26 08:47:43;;;;;;;2.80;1.47;;;;;;;15.31;100.00;100747.41;4965490;28;20954;-86
2023/07/26 08:50:09;;;;;;;2.03;1.43;;;;;;;15.65;100.00;100783.66;4967580;28;20476;-84
2023/07/26 08:52:37;;;;;;;2.93;1.40;;;;;;;15.68;100.00;100737.25;4974855;28;20454;-87
2023/07/26 08:55:03;;;;;;;2.03;1.53;;;;;;;15.36;100.00;100680.81;4966937;28;20194;-88
2023/07/26 08:57:29;;;;;;;2.57;1.33;;;;;;;15.90;100.00;100785.34;4969007;28;20873;-82
2023/07/26 08:59:54;;;;;;;2.53;1.40;;;;;;;15.60;100.00;100724.88;4974201;28;20214;-90
2023/07/26 09:02:21;;;;;;;2.60;1.30;;;;;;;15.51;100.00;100687.63;4962224;28;20194;-88
2023/07/26 09:04:47;;;;;;;3.63;1.30;;;;;;;15.98;100.00;100749.81;4967548;28;20774;-89
2023/07/26 09:07:13;;;;;;;2.23;1.17;;;;;;;15.00;100.00;100651.28;4960811;28;20473;-85
2023/07/26 09:09:39;;;;;;;2.50;1.37;;;;;;;15.60;100.00;100740.28;4972110;28;20468;-83
2023/07/26 09:12:06;;;;;;;2.57;1.40;;;;;;;15.41;100.00;100668.47;4970406;28;20448;-86
2023/07/26 09:14:33;;;;;;;1.80;1.20;;;;;;;15.08;100.00;100643.66;4968292;28;20449;-85
2023/07/26 09:17:00;;;;;;;2.10;1.10;;;;;;;15.73;100.00;100726.53;4967633;28;20471;-86
2023/07/26 09:19:34;;;;;;;3.00;1.30;;;;;;;15.18;100.00;100602.53;4971517;28;20992;-88
2023/07/26 09:22:02;;;;;;;2.33;1.20;;;;;;;15.32;100.00;100674.22;4968499;28;20448;-88
2023/07/26 09:24:36;;;;;;;1.47;0.90;;;;;;;15.69;100.00;100751.59;4962710;28;20464;-88
2023/07/26 09:27:12;;;;;;;2.50;1.27;;;;;;;15.78;100.00;100783.47;4968342;28;20496;-89
2023/07/26 09:29:39;;;;;;;1.00;0.80;;;;;;;15.30;100.00;100718.72;4972036;28;20928;-90
2023/07/26 09:32:06;;;;;;;1.50;1.10;;;;;;;15.60;100.00;100738.41;4970128;28;20452;-89
2023/07/26 09:34:32;;;;;;;1.93;1.20;;;;;;;16.10;100.00;100760.63;4970358;28;20472;-87
2023/07/26 09:36:58;;;;;;;2.60;1.40;;;;;;;15.88;100.00;100734.22;4967569;28;20828;-91
2023/07/26 09:39:28;;;;;;;1.83;1.00;;;;;;;16.45;100.00;100747.84;4957900;28;20853;-90
2023/07/26 09:42:08;;;;;;;1.97;1.13;;;;;;;16.15;100.00;100698.53;4971998;28;20441;-87
2023/07/26 09:44:35;;;;;;;3.00;1.40;;;;;;;16.55;100.00;100762.63;4968547;28;20519;-86
2023/07/26 09:47:01;;;;;;;3.87;1.70;;;;;;;16.25;100.00;100723.06;4968142;28;20448;-88
2023/07/26 09:49:29;;;;;;;1.80;1.00;;;;;;;16.81;100.00;100774.88;4967717;28;20469;-89
2023/07/26 09:51:57;;;;;;;3.23;1.50;;;;;;;16.15;100.00;100703.94;4963032;28;20576;-86
2023/07/26 09:54:34;;;;;;;2.90;1.60;;;;;;;16.31;100.00;100761.88;4968123;28;20475;-92
2023/07/26 09:57:00;;;;;;;2.60;1.20;;;;;;;16.41;100.00;100765.63;4970061;28;20453;-89
2023/07/26 09:59:28;;;;;;;1.70;1.07;;;;;;;16.22;100.00;100761.44;4965285;28;20519;-86
2023/07/26 10:01:54;;;;;;;1.90;1.20;;;;;;;15.42;100.00;100637.66;4968652;28;20449;-88
2023/07/26 10:04:31;;;;;;;1.97;1.30;;;;;;;15.74;100.00;100682.25;4967331;28;20433;-87
2023/07/26 10:07:00;;;;;;;1.87;1.47;;;;;;;15.98;100.00;100722.78;4965393;28;20454;-87
2023/07/26 10:09:27;;;;;;;1.57;1.10;;;;;;;16.08;100.00;100705.94;4968152;28;20985;-87
2023/07/26 10:11:54;;;;;;;1.80;1.10;;;;;;;15.49;100.00;100609.47;4970804;28;20449;-87
2023/07/26 10:14:21;;;;;;;2.60;1.50;;;;;;;15.80;100.00;100678.59;4967899;28;20801;-87
2023/07/26 10:16:49;;;;;;;2.10;1.30;;;;;;;16.03;100.00;100696.66;4982552;28;20475;-88
2023/07/26 10:19:15;;;;;;;2.90;1.30;;;;;;;15.84;100.00;100697.84;4971637;28;20496;-86
2023/07/26 10:21:42;;;;;;;2.20;1.43;;;;;;;16.02;100.00;100689.59;4962902;28;20450;-87
2023/07/26 10:24:11;;;;;;;2.27;1.43;;;;;;;15.56;100.00;100534.47;4966020;28;20445;-86
2023/07/26 10:26:38;;;;;;;2.93;1.53;;;;;;;15.80;100.00;100580.41;4978957;28;20601;-90
2023/07/26 10:29:04;;;;;;;2.50;1.70;;;;;;;16.49;100.00;100708.41;4967842;28;22160;-88
2023/07/26 10:31:30;;;;;;;3.37;1.80;;;;;;;16.62;100.00;100728.97;4968385;28;20575;-91
2023/07/26 10:33:57;;;;;;;2.97;1.60;;;;;;;16.80;100.00;100727.16;4971166;28;20560;-90
2023/07/26 10:36:33;;;;;;;2.03;1.50;;;;;;;16.20;100.00;100679.66;4968545;28;20190;-88
2023/07/26 10:39:05;;;;;;;3.13;1.50;;;;;;;16.39;100.00;100727.16;4964848;28;20456;-89
2023/07/26 10:41:31;;;;;;;2.30;1.67;;;;;;;16.47;100.00;100713.25;4966142;28;20923;-93
2023/07/26 10:44:04;;;;;;;1.70;0.93;;;;;;;16.63;100.00;100743.31;4973168;28;21083;-91
2023/07/26 10:46:35;;;;;;;1.60;1.40;;;;;;;16.06;100.00;100686.44;4971361;28;20190;-92
2023/07/26 10:49:16;;;;;;;3.57;1.77;;;;;;;16.52;100.00;100792.91;4985698;28;20477;-91
2023/07/26 10:51:57;;;;;;;2.43;1.53;;;;;;;16.33;100.00;100784.94;4984686;28;20452;-89
2023/07/26 10:54:35;;;;;;;2.23;1.60;;;;;;;16.43;100.00;100793.31;4972688;28;20444;-91
2023/07/26 10:57:32;;;;;;;2.80;1.83;;;;;;;16.36;100.00;100772.81;4968704;28;20479;-89
2023/07/26 11:00:17;;;;;;;4.30;1.50;;;;;;;16.19;100.00;100745.69;4976212;28;20464;-87
2023/07/26 11:02:48;;;;;;;2.80;1.80;;;;;;;15.62;100.00;100607.56;4967551;28;20514;-89
2023/07/26 11:05:22;;;;;;;2.60;1.73;;;;;;;16.23;100.00;100684.63;4971039;28;20477;-90
2023/07/26 11:08:07;;;;;;;2.33;1.73;;;;;;;16.12;100.00;100672.75;4965856;28;20484;-89
2023/07/26 11:10:38;;;;;;;2.50;1.90;;;;;;;15.97;100.00;100645.41;4968881;28;20447;-86
2023/07/26 11:13:15;;;;;;;2.80;1.50;;;;;;;15.91;100.00;100644.47;4966000;28;20455;-87
2023/07/26 11:15:50;;;;;;;2.87;1.77;;;;;;;15.62;100.00;100646.22;4965784;28;20523;-88